Marion Dufresne — FNIN — position and weather

sailwx.info

Track history (hours):
 
Tides and Currents Weather Stations Pressure Air Temp Water Temp Dewpoint Dewpoint Depression Visibility Wind Speed Wind Dir Waves Ship Positions

Oceanographic research ship Marion Dufresne (France)

Detailed information on ship capabilities available from University of Delaware's Ocean Information Center and ARCUS's ALIAS (Arctic Logistics Information and Support) project.

Last reported at 2014-Aug-13 20:26 UTC. Time now 2014-Aug-22 05:59 UTC.
Position S 33°29' E 029°39'.
Warning: this ship's position is 8 days out of date.

Length 120 m; beam 21 m.

Type: Passenger vessel. MMSI: 227235000.

Date/timePositionNaut miles runAvg speedWind from/ knotsBaromVisibWave heightAir tempDewpointWater temp
2014-Aug-13 20:26S 33°29' E 029°39'9 8.8
2014-Aug-13 19:28S 33°32' E 029°29'1410.0
2014-Aug-13 18:04S 33°39' E 029°14'8912.9
2014-Aug-13 11:12S 34°14' E 027°36'45413.1
2014-Aug-12 00:33S 34°56' E 018°27'1413.6
2014-Aug-11 23:30S 34°44' E 018°16'1313.6
2014-Aug-11 22:30S 34°34' E 018°06'1314.0
2014-Aug-11 21:33S 34°23' E 017°56'1514.4
2014-Aug-11 20:32S 34°11' E 017°46'8514.0
2014-Aug-11 14:30S 33°04' E 016°44'  
Track history (hours):
 
Tides and Currents Weather Stations Pressure Air Temp Water Temp Dewpoint Dewpoint Depression Visibility Wind Speed Wind Dir Waves Ship Positions

Oceanographic research ship Marion Dufresne (France)

Detailed information on ship capabilities available from University of Delaware's Ocean Information Center and ARCUS's ALIAS (Arctic Logistics Information and Support) project.

Last reported at 2014-Aug-13 20:26 UTC. Time now 2014-Aug-22 05:59 UTC.
Position S 33°29' E 029°39'.
Warning: this ship's position is 8 days out of date.

Length 120 m; beam 21 m.

Type: Passenger vessel. MMSI: 227235000.

Date/timePositionNaut miles runAvg speedWind from/ knotsBaromVisibWave heightAir tempDewpointWater temp
2014-Aug-13 20:26S 33°29' E 029°39'9 8.8
2014-Aug-13 19:28S 33°32' E 029°29'1410.0
2014-Aug-13 18:04S 33°39' E 029°14'8912.9
2014-Aug-13 11:12S 34°14' E 027°36'45413.1
2014-Aug-12 00:33S 34°56' E 018°27'1413.6
2014-Aug-11 23:30S 34°44' E 018°16'1313.6
2014-Aug-11 22:30S 34°34' E 018°06'1314.0
2014-Aug-11 21:33S 34°23' E 017°56'1514.4
2014-Aug-11 20:32S 34°11' E 017°46'8514.0
2014-Aug-11 14:30S 33°04' E 016°44'  

Dump ship's entire track history